Time;durP1;ratioP1;P1;durP2;ratioP2;P2;SDS_P1;SDS_P2;PMS_P1;PMS_P2;Temp;Humidity;BMP_temperature;BMP_pressure;BME280_temperature;BME280_humidity;BME280_pressure;Samples;Min_cycle;Max_cycle;Signal;HPM_P1;HPM_P2
2022/07/17 00:02:11;;;;;;;5.75;3.72;;;;;;;20.01;46.30;101120.59;4994336;28;20058;-41
2022/07/17 00:04:38;;;;;;;7.07;3.17;;;;;;;19.94;46.68;101118.97;4990331;28;20513;-46
2022/07/17 00:07:05;;;;;;;5.07;3.90;;;;;;;19.86;47.66;101108.66;4989293;28;20047;-42
2022/07/17 00:09:31;;;;;;;4.60;3.38;;;;;;;19.77;47.72;101107.13;4992662;28;20057;-42
2022/07/17 00:11:58;;;;;;;7.10;4.22;;;;;;;19.72;48.15;101108.16;4983330;28;20054;-43
2022/07/17 00:14:25;;;;;;;5.82;3.50;;;;;;;19.67;47.83;101105.63;4984941;28;20054;-42
2022/07/17 00:16:53;;;;;;;6.10;3.65;;;;;;;19.63;47.90;101109.22;4988298;28;20107;-42
2022/07/17 00:19:20;;;;;;;7.55;3.65;;;;;;;19.59;48.08;101112.81;4992588;28;20104;-42
2022/07/17 00:21:47;;;;;;;5.45;3.47;;;;;;;19.49;48.42;101114.81;4994523;28;20117;-42
2022/07/17 00:24:19;;;;;;;4.95;3.55;;;;;;;19.39;48.56;101119.41;4991415;28;20490;-41
2022/07/17 00:26:48;;;;;;;5.97;3.67;;;;;;;19.32;48.82;101109.94;4987353;28;20057;-43
2022/07/17 00:29:15;;;;;;;6.88;3.75;;;;;;;19.30;48.52;101116.97;4986877;28;20050;-41
2022/07/17 00:31:42;;;;;;;5.75;3.70;;;;;;;19.29;48.92;101115.25;4994812;28;20112;-41
2022/07/17 00:34:09;;;;;;;6.65;4.30;;;;;;;19.25;48.52;101115.31;4997362;28;20046;-42
2022/07/17 00:36:36;;;;;;;7.32;4.38;;;;;;;19.23;48.43;101117.13;4986927;28;20092;-42
2022/07/17 00:39:03;;;;;;;5.68;3.50;;;;;;;19.21;49.39;101118.91;4997389;28;20050;-42
2022/07/17 00:41:30;;;;;;;11.57;3.92;;;;;;;19.17;48.70;101114.63;4995618;28;20097;-41
2022/07/17 00:44:07;;;;;;;4.93;3.70;;;;;;;19.12;49.34;101113.84;4996128;28;20058;-42
2022/07/17 00:46:34;;;;;;;4.05;3.08;;;;;;;19.12;48.57;101111.22;4991947;28;20120;-41
2022/07/17 00:49:02;;;;;;;6.25;3.33;;;;;;;19.10;48.99;101113.00;4983307;28;20589;-42
2022/07/17 00:51:29;;;;;;;7.15;3.75;;;;;;;19.09;48.44;101114.78;4983896;28;20046;-41
2022/07/17 00:53:58;;;;;;;5.18;3.33;;;;;;;19.08;49.50;101112.19;4986203;28;20082;-45
2022/07/17 00:56:31;;;;;;;5.90;3.60;;;;;;;19.06;49.50;101113.94;4985262;28;20141;-42
2022/07/17 00:58:59;;;;;;;6.38;4.50;;;;;;;19.05;49.16;101114.84;4998644;28;20100;-43
2022/07/17 01:01:26;;;;;;;6.35;3.90;;;;;;;19.04;49.02;101115.75;5000590;28;20049;-44
2022/07/17 01:03:53;;;;;;;6.47;3.72;;;;;;;19.02;49.53;101118.41;4997489;28;20046;-42
2022/07/17 01:06:19;;;;;;;5.78;3.70;;;;;;;19.00;49.72;101114.94;4985493;28;20038;-42
2022/07/17 01:08:46;;;;;;;5.63;3.92;;;;;;;18.94;50.44;101121.19;4995502;28;20110;-42
2022/07/17 01:11:13;;;;;;;7.35;4.25;;;;;;;18.87;50.32;101124.81;4992064;28;20078;-42
2022/07/17 01:13:40;;;;;;;5.93;4.18;;;;;;;18.84;49.94;101122.25;4983636;28;20050;-44
2022/07/17 01:16:08;;;;;;;7.40;4.00;;;;;;;18.83;50.42;101125.78;4991385;28;20048;-43
2022/07/17 01:18:36;;;;;;;5.65;3.92;;;;;;;18.83;50.47;101133.66;4992249;28;20129;-45
2022/07/17 01:21:05;;;;;;;5.63;3.35;;;;;;;18.85;50.53;101118.75;4992220;28;20055;-42
2022/07/17 01:23:32;;;;;;;4.95;3.75;;;;;;;18.87;50.68;101119.56;4988225;28;20054;-47
2022/07/17 01:25:58;;;;;;;5.57;4.10;;;;;;;18.90;50.70;101114.25;4981904;28;20046;-44
2022/07/17 01:28:25;;;;;;;8.30;4.25;;;;;;;18.90;50.03;101114.25;4990564;28;20046;-43
2022/07/17 01:30:52;;;;;;;5.93;4.18;;;;;;;18.93;49.97;101105.47;4992555;28;20061;-42
2022/07/17 01:33:20;;;;;;;5.30;3.95;;;;;;;18.92;50.38;101112.50;4989033;28;20042;-46
2022/07/17 01:35:50;;;;;;;7.07;3.83;;;;;;;18.68;51.61;101113.84;4996984;28;20133;-42
2022/07/17 01:38:16;;;;;;;7.32;4.28;;;;;;;18.56;51.24;101099.19;4987492;28;20050;-45
2022/07/17 01:40:43;;;;;;;5.57;4.00;;;;;;;18.54;51.25;101095.75;4996470;28;20137;-45
2022/07/17 01:43:10;;;;;;;6.35;4.88;;;;;;;18.52;51.33;101092.28;4987667;28;20041;-45
2022/07/17 01:45:37;;;;;;;6.40;2.97;;;;;;;18.47;51.75;101095.84;4998590;28;20480;-42
2022/07/17 01:48:04;;;;;;;5.22;3.83;;;;;;;18.34;52.71;101086.50;4992690;28;20057;-44
2022/07/17 01:50:32;;;;;;;8.48;4.50;;;;;;;18.32;52.42;101085.66;4996444;28;20054;-43
2022/07/17 01:52:58;;;;;;;6.43;4.15;;;;;;;18.33;52.56;101104.00;4987400;28;20406;-45
2022/07/17 01:55:25;;;;;;;6.03;3.90;;;;;;;18.36;52.05;101105.69;4989774;28;20046;-45
2022/07/17 01:57:52;;;;;;;5.68;4.25;;;;;;;18.35;52.62;101110.09;4998664;28;20054;-41
2022/07/17 02:00:22;;;;;;;7.28;4.28;;;;;;;18.37;51.93;101104.78;4999782;28;20121;-44
2022/07/17 02:02:49;;;;;;;6.95;4.43;;;;;;;18.42;52.64;101081.09;4995711;28;20046;-42
2022/07/17 02:05:16;;;;;;;6.03;3.78;;;;;;;18.46;51.90;101094.13;4999876;28;20058;-41
2022/07/17 02:07:44;;;;;;;6.45;3.88;;;;;;;18.49;52.23;101099.34;4989570;28;20049;-43
2022/07/17 02:10:13;;;;;;;5.10;3.30;;;;;;;18.50;52.57;101102.78;4990406;28;20049;-43
2022/07/17 02:12:42;;;;;;;6.75;4.35;;;;;;;18.46;52.58;101112.50;4990503;28;20098;-45
2022/07/17 02:15:10;;;;;;;4.88;3.90;;;;;;;18.43;52.34;101112.53;4988685;28;20050;-42
2022/07/17 02:17:36;;;;;;;5.45;2.42;;;;;;;18.41;52.59;101111.69;4994522;28;20433;-42
2022/07/17 02:20:04;;;;;;;8.50;3.17;;;;;;;18.44;52.40;101113.44;4991090;28;20859;-46
2022/07/17 02:22:31;;;;;;;7.07;4.35;;;;;;;18.46;53.14;101109.00;4980479;28;20088;-42
2022/07/17 02:24:58;;;;;;;5.65;3.20;;;;;;;18.44;52.85;101109.03;4997833;28;20929;-42
2022/07/17 02:27:24;;;;;;;6.47;4.43;;;;;;;18.45;52.47;101116.03;4995106;28;20042;-44
2022/07/17 02:29:51;;;;;;;5.78;4.30;;;;;;;18.47;52.77;101121.22;4990665;28;20069;-42
2022/07/17 02:32:18;;;;;;;6.93;4.90;;;;;;;18.42;53.46;101113.44;4986314;28;20490;-42
2022/07/17 02:34:44;;;;;;;6.63;4.10;;;;;;;18.40;52.50;101117.84;4993135;28;20093;-44
2022/07/17 02:37:12;;;;;;;7.47;4.88;;;;;;;18.41;53.13;101111.69;4991974;28;20058;-42
2022/07/17 02:39:52;;;;;;;8.32;4.28;;;;;;;18.43;53.44;101104.69;4994316;28;20057;-41
2022/07/17 02:42:20;;;;;;;15.73;4.68;;;;;;;18.46;52.81;101099.38;4997664;28;20042;-42
2022/07/17 02:44:48;;;;;;;5.05;3.92;;;;;;;18.47;53.58;101097.59;4995174;28;20054;-42
2022/07/17 02:47:25;;;;;;;6.50;3.85;;;;;;;18.44;53.54;101105.56;4993947;28;20051;-42
2022/07/17 02:49:52;;;;;;;6.47;4.07;;;;;;;18.41;53.47;101101.22;4989726;28;20114;-41
2022/07/17 02:52:19;;;;;;;7.40;4.30;;;;;;;18.39;53.82;101099.50;4994523;28;20108;-41
2022/07/17 02:54:46;;;;;;;6.75;4.22;;;;;;;18.36;53.62;101103.06;5000815;28;20556;-45
2022/07/17 02:57:13;;;;;;;4.95;4.22;;;;;;;18.36;53.65;101103.06;4988271;28;20046;-42
2022/07/17 02:59:40;;;;;;;5.70;4.43;;;;;;;18.39;53.74;101108.25;4990854;28;20482;-42
2022/07/17 03:02:07;;;;;;;5.78;4.20;;;;;;;18.40;53.72;101101.25;4989962;28;20054;-42
2022/07/17 03:04:33;;;;;;;5.60;2.90;;;;;;;18.36;53.31;101092.56;4987949;28;20642;-42
2022/07/17 03:07:00;;;;;;;4.75;3.70;;;;;;;18.33;54.08;101097.88;4981935;28;20042;-41
2022/07/17 03:09:27;;;;;;;5.80;3.72;;;;;;;18.30;54.44;101097.94;4986554;28;20051;-42
2022/07/17 03:11:53;;;;;;;7.82;4.00;;;;;;;18.29;54.40;101088.31;4994442;28;20096;-42
2022/07/17 03:14:20;;;;;;;5.22;4.28;;;;;;;18.26;54.63;101085.75;4988077;28;20050;-42
2022/07/17 03:16:47;;;;;;;6.97;5.28;;;;;;;18.24;54.00;101081.41;4987938;28;20049;-41
2022/07/17 03:19:14;;;;;;;6.15;4.25;;;;;;;18.24;54.36;101073.53;4981187;28;20046;-43
2022/07/17 03:21:40;;;;;;;4.47;3.97;;;;;;;18.23;54.65;101074.44;4985608;28;20085;-41
2022/07/17 03:24:07;;;;;;;6.97;5.50;;;;;;;18.23;54.51;101082.31;4989320;28;20116;-42
2022/07/17 03:26:33;;;;;;;6.30;2.90;;;;;;;18.24;53.94;101084.03;4985224;28;20616;-41
2022/07/17 03:29:00;;;;;;;5.88;2.67;;;;;;;18.26;54.02;101070.03;4985628;28;20460;-43
2022/07/17 03:31:27;;;;;;;7.20;4.15;;;;;;;18.27;53.90;101074.41;4992277;28;20050;-41
2022/07/17 03:33:54;;;;;;;4.97;3.83;;;;;;;18.27;54.42;101074.41;4985385;28;20060;-41
2022/07/17 03:36:21;;;;;;;5.65;3.97;;;;;;;18.26;53.75;101070.91;4987255;28;20054;-43
2022/07/17 03:38:47;;;;;;;7.68;4.88;;;;;;;18.27;53.86;101071.78;4991740;28;20054;-43
2022/07/17 03:41:14;;;;;;;6.00;4.55;;;;;;;18.28;53.99;101078.75;4986748;28;20050;-41
2022/07/17 03:43:41;;;;;;;7.18;3.75;;;;;;;18.28;53.67;101083.97;4990677;28;20137;-42
2022/07/17 03:46:07;;;;;;;6.63;4.18;;;;;;;18.29;53.64;101077.84;4985568;28;20042;-42
2022/07/17 03:48:34;;;;;;;5.60;4.00;;;;;;;18.27;53.99;101083.09;4981380;28;20062;-41
2022/07/17 03:51:01;;;;;;;5.60;4.03;;;;;;;18.28;53.66;101086.59;4990973;28;20490;-41
2022/07/17 03:53:27;;;;;;;8.00;4.05;;;;;;;18.28;54.08;101094.47;4988287;28;20057;-42
2022/07/17 03:55:54;;;;;;;6.40;4.40;;;;;;;18.27;53.68;101095.38;4997143;28;20061;-42
2022/07/17 03:58:21;;;;;;;7.03;4.05;;;;;;;18.28;54.06;101104.97;4992548;28;20043;-41
2022/07/17 04:00:47;;;;;;;7.45;4.95;;;;;;;18.27;54.08;101105.88;4985873;28;20486;-44
2022/07/17 04:03:14;;;;;;;8.65;4.63;;;;;;;18.24;53.92;101104.16;4985099;28;20042;-43
2022/07/17 04:05:41;;;;;;;7.25;4.40;;;;;;;18.22;53.95;101100.69;4998073;28;20105;-44
2022/07/17 04:08:07;;;;;;;6.93;6.22;;;;;;;18.21;54.31;101099.81;4985092;28;20050;-41
2022/07/17 04:10:35;;;;;;;5.97;3.28;;;;;;;18.19;53.71;101096.38;4984167;28;20050;-41
2022/07/17 04:13:02;;;;;;;5.97;4.05;;;;;;;18.20;54.45;101108.59;4988198;28;20046;-41
2022/07/17 04:18:17;;;;;;;8.85;4.78;;;;;;;18.21;54.17;101091.94;4978406;28;20046;-42
2022/07/17 04:20:44;;;;;;;5.70;3.92;;;;;;;18.21;53.97;101089.31;4987563;28;20552;-41
2022/07/17 04:23:11;;;;;;;7.22;4.93;;;;;;;18.22;54.55;101085.84;4987727;28;20101;-43
2022/07/17 04:25:37;;;;;;;6.63;4.50;;;;;;;18.22;53.81;101095.44;4987403;28;20050;-42
2022/07/17 04:28:04;;;;;;;7.57;2.83;;;;;;;18.22;54.92;101085.84;4982193;28;20467;-42
2022/07/17 04:30:31;;;;;;;7.07;3.70;;;;;;;18.22;54.43;101084.97;4986485;28;20089;-41
2022/07/17 04:32:58;;;;;;;11.57;4.57;;;;;;;18.21;54.29;101097.19;4978793;28;20054;-42
2022/07/17 04:35:24;;;;;;;7.53;4.57;;;;;;;18.22;54.25;101096.31;4984741;28;20053;-40
2022/07/17 04:37:51;;;;;;;9.73;5.70;;;;;;;18.24;55.16;101098.91;4987188;28;20050;-43
2022/07/17 04:40:18;;;;;;;6.45;4.35;;;;;;;18.24;54.90;101094.53;4990558;28;20046;-42
2022/07/17 04:42:45;;;;;;;5.90;4.20;;;;;;;18.27;55.44;101103.25;4991733;28;20046;-42
2022/07/17 04:45:13;;;;;;;6.00;4.28;;;;;;;18.26;54.72;101097.13;4983557;28;20050;-42
2022/07/17 04:47:40;;;;;;;5.68;4.25;;;;;;;18.27;55.21;101092.75;4982019;28;20061;-41
2022/07/17 04:50:09;;;;;;;7.72;5.50;;;;;;;18.27;55.82;101092.75;4986095;28;20133;-41
2022/07/17 04:52:36;;;;;;;6.57;4.32;;;;;;;18.26;55.42;101091.00;4989099;28;20055;-41
2022/07/17 04:55:03;;;;;;;6.30;4.40;;;;;;;18.27;55.39;101088.34;4996746;28;20445;-41
2022/07/17 04:57:30;;;;;;;6.80;4.70;;;;;;;18.31;55.72;101084.78;4991574;28;20062;-45
2022/07/17 04:59:57;;;;;;;6.95;3.60;;;;;;;18.36;55.52;101087.31;4993203;28;20728;-41
2022/07/17 05:02:24;;;;;;;7.18;5.72;;;;;;;18.43;55.59;101077.56;4986752;28;20070;-41
2022/07/17 05:04:51;;;;;;;8.70;4.57;;;;;;;18.48;56.29;101073.97;4988282;28;20053;-41
2022/07/17 05:07:18;;;;;;;8.25;5.45;;;;;;;18.55;55.78;101077.38;4984389;28;20058;-46
2022/07/17 05:09:45;;;;;;;9.30;5.38;;;;;;;18.63;56.29;101079.81;4996532;28;20054;-42
2022/07/17 05:12:11;;;;;;;9.30;5.45;;;;;;;18.69;55.54;101070.97;4992283;28;20046;-41
2022/07/17 05:14:38;;;;;;;6.97;5.05;;;;;;;18.72;55.58;101074.41;4980353;28;20127;-44
2022/07/17 05:17:05;;;;;;;7.05;5.50;;;;;;;18.77;56.00;101073.44;4985883;28;20097;-41
2022/07/17 05:19:32;;;;;;;9.02;5.65;;;;;;;18.81;55.66;101077.72;4985848;28;20050;-42
2022/07/17 05:21:59;;;;;;;8.48;4.57;;;;;;;18.92;55.97;101083.63;4989349;28;20089;-42
2022/07/17 05:24:25;;;;;;;7.63;3.90;;;;;;;19.01;55.60;101075.53;4998789;28;20420;-42
2022/07/17 05:26:52;;;;;;;9.20;6.13;;;;;;;19.14;55.85;101083.16;4987706;28;20101;-42
2022/07/17 05:29:18;;;;;;;8.68;6.00;;;;;;;19.25;55.70;101082.94;4989702;28;20050;-41
2022/07/17 05:31:45;;;;;;;11.38;6.10;;;;;;;19.38;55.90;101089.63;4980369;28;20050;-41
2022/07/17 05:34:12;;;;;;;8.48;4.63;;;;;;;19.52;55.90;101097.19;4980537;28;20253;-42
2022/07/17 05:36:39;;;;;;;8.10;5.15;;;;;;;19.68;55.68;101090.69;4982126;28;20050;-42
2022/07/17 05:39:05;;;;;;;9.30;6.35;;;;;;;19.80;55.28;101093.03;4983283;28;20058;-41
2022/07/17 05:41:32;;;;;;;8.52;4.88;;;;;;;19.96;55.59;101084.78;4990750;28;20055;-42
2022/07/17 05:43:58;;;;;;;8.23;5.38;;;;;;;20.11;55.45;101083.53;4988022;28;20553;-42
2022/07/17 05:46:25;;;;;;;10.32;5.57;;;;;;;20.28;54.86;101086.59;4991304;28;20046;-42
2022/07/17 05:48:52;;;;;;;9.05;5.80;;;;;;;20.43;54.75;101079.16;4996650;28;20042;-45
2022/07/17 05:51:18;;;;;;;11.95;5.50;;;;;;;20.57;54.49;101085.81;4992188;28;20092;-44
2022/07/17 05:53:50;;;;;;;8.27;4.35;;;;;;;20.71;54.53;101086.31;4994702;28;20616;-41
2022/07/17 05:56:17;;;;;;;8.35;5.60;;;;;;;20.87;54.31;101099.03;4997080;28;20046;-46
2022/07/17 05:58:43;;;;;;;8.60;5.75;;;;;;;21.00;53.93;101100.41;4991303;28;20133;-48
2022/07/17 06:01:10;;;;;;;9.27;5.53;;;;;;;21.14;54.08;101107.88;4984013;28;20065;-42
2022/07/17 06:03:37;;;;;;;8.18;5.78;;;;;;;21.31;53.81;101109.16;4987749;28;20042;-42
2022/07/17 06:06:03;;;;;;;9.95;5.57;;;;;;;21.46;53.55;101110.44;4990352;28;20120;-44
2022/07/17 06:08:30;;;;;;;7.95;5.47;;;;;;;21.63;53.29;101117.81;4995305;28;20063;-44
2022/07/17 06:10:57;;;;;;;8.68;4.95;;;;;;;21.77;52.91;101116.50;4984013;28;20046;-48
2022/07/17 06:13:23;;;;;;;6.63;3.88;;;;;;;21.85;52.45;101118.91;4981078;28;20489;-43
2022/07/17 06:15:50;;;;;;;10.52;5.65;;;;;;;21.88;52.09;101121.47;4988828;28;20156;-46
2022/07/17 06:18:17;;;;;;;9.82;6.43;;;;;;;21.92;52.19;101118.66;4986346;28;20065;-45
2022/07/17 06:20:44;;;;;;;9.13;5.45;;;;;;;21.95;52.07;101110.63;4986700;28;20042;-42
2022/07/17 06:23:11;;;;;;;9.65;6.05;;;;;;;21.95;52.03;101094.81;4980884;28;20065;-43
2022/07/17 06:25:37;;;;;;;7.68;4.90;;;;;;;21.92;51.70;101089.63;4995090;28;20050;-43
2022/07/17 06:28:05;;;;;;;7.90;5.35;;;;;;;21.92;51.30;101109.91;4988011;28;20045;-45
2022/07/17 06:30:31;;;;;;;7.18;4.78;;;;;;;21.92;51.64;101118.66;4985726;28;20054;-47
2022/07/17 06:32:58;;;;;;;9.00;5.05;;;;;;;21.92;51.16;101118.66;4989761;28;20077;-43
2022/07/17 06:35:25;;;;;;;7.30;5.35;;;;;;;22.02;51.97;101124.47;4991366;28;20494;-50
2022/07/17 06:37:51;;;;;;;8.38;4.82;;;;;;;22.26;52.16;101128.97;4992792;28;20397;-49
2022/07/17 06:40:18;;;;;;;10.98;5.18;;;;;;;22.54;52.17;101120.06;4986270;28;20050;-49
2022/07/17 06:42:46;;;;;;;6.93;4.47;;;;;;;22.83;51.58;101128.75;4983412;28;20058;-43
2022/07/17 06:45:13;;;;;;;6.43;4.68;;;;;;;23.01;50.09;101136.88;4983460;28;20054;-47
2022/07/17 06:47:39;;;;;;;6.53;4.53;;;;;;;23.15;50.35;101128.44;4983530;28;20065;-46
2022/07/17 06:50:08;;;;;;;8.38;4.82;;;;;;;23.34;50.58;101137.38;4996583;28;20050;-43
2022/07/17 06:52:35;;;;;;;6.75;4.35;;;;;;;23.55;49.72;101142.78;4995525;28;20505;-44
2022/07/17 06:55:02;;;;;;;6.25;3.80;;;;;;;23.83;50.12;101131.06;4984604;28;20058;-48
2022/07/17 06:57:30;;;;;;;6.20;4.20;;;;;;;24.10;48.28;101133.47;4986322;28;20050;-45
2022/07/17 06:59:57;;;;;;;6.70;3.95;;;;;;;24.36;48.15;101128.00;4989057;28;20100;-45
2022/07/17 07:02:23;;;;;;;7.28;4.28;;;;;;;24.60;47.58;101126.06;4990384;28;20050;-45
2022/07/17 07:04:50;;;;;;;6.90;3.63;;;;;;;24.82;46.95;101118.94;4981653;28;20066;-45
2022/07/17 07:07:16;;;;;;;5.25;3.97;;;;;;;25.03;47.00;101123.25;4990862;28;20046;-42
2022/07/17 07:09:43;;;;;;;7.57;3.72;;;;;;;25.12;46.27;101126.41;4988711;28;20402;-47
2022/07/17 07:12:10;;;;;;;7.20;4.03;;;;;;;25.13;45.78;101118.38;4988202;28;20484;-43
2022/07/17 07:14:36;;;;;;;6.70;4.07;;;;;;;25.18;45.86;101119.94;4989011;28;20058;-44
2022/07/17 07:17:03;;;;;;;5.78;3.55;;;;;;;25.23;45.81;101118.78;4999541;28;20046;-44
2022/07/17 07:19:30;;;;;;;7.15;4.43;;;;;;;25.42;45.92;101118.78;4995986;28;20042;-47
2022/07/17 07:21:57;;;;;;;4.75;1.90;;;;;;;25.66;45.06;101121.19;4996098;28;20410;-51
2022/07/17 07:24:23;;;;;;;6.53;4.10;;;;;;;25.92;45.13;101111.06;4993996;28;20053;-45
2022/07/17 07:26:50;;;;;;;6.18;4.20;;;;;;;26.26;45.12;101120.88;4996630;28;20100;-47
2022/07/17 07:29:17;;;;;;;7.10;3.15;;;;;;;26.57;44.65;101108.66;4997303;28;20049;-45
2022/07/17 07:31:44;;;;;;;10.35;5.53;;;;;;;26.89;44.21;101116.69;4991347;28;20505;-44
2022/07/17 07:34:10;;;;;;;7.53;4.28;;;;;;;27.07;43.54;101119.28;4995976;28;20520;-46
2022/07/17 07:36:37;;;;;;;5.25;2.35;;;;;;;27.24;42.66;101115.69;4989314;28;20530;-46
2022/07/17 07:39:03;;;;;;;4.93;3.75;;;;;;;27.47;42.93;101126.81;4986641;28;20042;-43
2022/07/17 07:41:30;;;;;;;4.90;3.92;;;;;;;27.73;42.48;101128.94;4988220;28;20053;-45
2022/07/17 07:43:57;;;;;;;5.85;3.55;;;;;;;28.01;43.12;101129.97;4992151;28;20053;-46
2022/07/17 07:46:25;;;;;;;4.03;3.63;;;;;;;28.31;41.91;101131.78;4987807;28;20105;-45
2022/07/17 07:48:51;;;;;;;5.82;3.22;;;;;;;28.58;41.27;101133.69;4995746;28;20047;-46
2022/07/17 07:51:18;;;;;;;3.42;3.08;;;;;;;28.72;40.93;101131.03;4986683;28;20369;-43
2022/07/17 07:54:05;;;;;;;6.07;2.50;;;;;;;28.88;41.09;101130.06;4990124;28;20540;-46
2022/07/17 07:56:32;;;;;;;5.15;3.85;;;;;;;29.10;40.61;101123.38;4990529;28;20108;-45
2022/07/17 07:58:58;;;;;;;5.93;3.35;;;;;;;29.23;38.99;101116.28;4984283;28;20130;-46
2022/07/17 08:01:25;;;;;;;5.05;3.33;;;;;;;29.32;39.07;101127.31;4990871;28;20050;-45
2022/07/17 08:03:52;;;;;;;4.20;3.53;;;;;;;29.40;39.69;101119.66;4987948;28;20441;-47
2022/07/17 08:06:19;;;;;;;6.45;3.60;;;;;;;29.57;39.65;101126.56;4992809;28;20048;-42
2022/07/17 08:08:45;;;;;;;4.22;3.67;;;;;;;29.73;39.36;101131.75;4988018;28;20054;-43
2022/07/17 08:11:12;;;;;;;4.53;3.90;;;;;;;29.94;38.60;101131.25;4993614;28;20572;-46
2022/07/17 08:13:40;;;;;;;4.97;2.55;;;;;;;30.14;38.36;101135.28;4985888;28;20410;-44
2022/07/17 08:16:07;;;;;;;7.30;3.97;;;;;;;30.31;37.43;101140.38;4980740;28;20065;-43
2022/07/17 08:18:34;;;;;;;5.93;4.30;;;;;;;30.48;37.28;101142.75;4988476;28;20047;-45
2022/07/17 08:21:01;;;;;;;4.13;3.72;;;;;;;30.73;37.19;101135.63;4993762;28;20057;-45
2022/07/17 08:23:27;;;;;;;6.35;3.50;;;;;;;30.97;36.56;101137.53;4992740;28;20057;-44
2022/07/17 08:25:54;;;;;;;3.65;3.13;;;;;;;31.08;36.37;101133.22;4994207;28;20186;-46
2022/07/17 08:28:20;;;;;;;5.20;3.70;;;;;;;30.99;35.69;101138.28;4999176;28;20704;-45
2022/07/17 08:30:48;;;;;;;4.40;3.00;;;;;;;30.93;35.73;101135.22;4990340;28;20561;-45
2022/07/17 08:33:16;;;;;;;3.88;3.47;;;;;;;31.00;35.78;101142.66;4993239;28;20050;-42
2022/07/17 08:35:43;;;;;;;7.15;3.72;;;;;;;31.27;35.95;101128.25;4981229;28;20068;-42
2022/07/17 08:38:09;;;;;;;4.68;2.72;;;;;;;31.52;34.89;101130.94;4986350;28;20042;-47
2022/07/17 08:40:39;;;;;;;4.50;2.80;;;;;;;31.69;34.56;101135.03;4989201;28;20042;-48
2022/07/17 08:43:07;;;;;;;3.53;2.80;;;;;;;31.97;34.61;101124.91;4993514;28;20084;-44
2022/07/17 08:45:35;;;;;;;4.45;3.25;;;;;;;32.15;34.13;101121.78;4987250;28;20077;-46
2022/07/17 08:48:11;;;;;;;2.85;2.58;;;;;;;32.29;33.54;101121.53;4990323;28;20070;-43
2022/07/17 08:50:38;;;;;;;3.80;2.00;;;;;;;32.28;32.92;101122.50;4978951;28;20536;-44
2022/07/17 08:53:05;;;;;;;2.33;2.13;;;;;;;32.25;32.97;101125.44;4977861;28;20058;-45
2022/07/17 08:55:33;;;;;;;4.00;2.38;;;;;;;32.36;33.21;101113.88;4991834;28;20061;-43
2022/07/17 08:57:59;;;;;;;4.50;3.05;;;;;;;32.53;33.15;101115.25;4982345;28;20108;-42
2022/07/17 09:00:27;;;;;;;5.32;2.55;;;;;;;32.74;33.08;101119.84;4985913;28;20541;-44
2022/07/17 09:08:15;;;;;;;1.98;1.25;;;;;;;33.45;32.22;101120.41;5077564;27;20386;-41
2022/07/17 09:10:43;;;;;;;2.63;1.42;;;;;;;33.55;31.75;101126.72;5040635;28;20053;-43
2022/07/17 09:16:12;;;;;;;2.25;1.40;;;;;;;33.38;30.75;101113.84;5032101;27;20931;-44
2022/07/17 09:18:50;;;;;;;3.50;1.60;;;;;;;33.32;31.08;101115.22;5001928;28;20046;-42
2022/07/17 09:21:19;;;;;;;2.17;1.02;;;;;;;33.46;30.71;101122.13;5003280;28;20046;-43
2022/07/17 09:23:57;;;;;;;1.80;1.13;;;;;;;33.55;30.91;101121.38;5000357;28;20053;-43
2022/07/17 09:26:25;;;;;;;2.22;1.30;;;;;;;33.69;31.03;101122.03;5002302;28;20153;-41
2022/07/17 09:28:52;;;;;;;1.92;1.23;;;;;;;33.94;30.41;101117.28;4999009;28;20053;-46
2022/07/17 09:31:34;;;;;;;4.55;1.30;;;;;;;34.09;31.10;101113.25;4997520;28;20042;-42
2022/07/17 09:34:01;;;;;;;2.75;1.15;;;;;;;34.26;30.11;101108.28;4997934;28;20061;-43
2022/07/17 09:36:28;;;;;;;2.75;1.27;;;;;;;34.40;30.03;101114.25;5000825;28;20050;-44
2022/07/17 09:38:58;;;;;;;2.00;1.20;;;;;;;34.50;29.91;101115.16;4997149;28;20042;-41
2022/07/17 09:41:26;;;;;;;1.67;1.10;;;;;;;34.64;29.95;101113.97;5014492;28;20068;-42
2022/07/17 09:43:57;;;;;;;2.05;1.33;;;;;;;34.80;29.01;101105.38;5015322;28;20050;-45
2022/07/17 09:49:03;;;;;;;1.60;1.13;;;;;;;34.63;29.26;101109.56;5014637;27;20411;-40
2022/07/17 09:54:10;;;;;;;4.35;2.50;;;;;;;34.78;29.97;101106.50;5084678;27;20403;-40
2022/07/17 09:56:39;;;;;;;2.22;1.92;;;;;;;34.90;30.00;101099.16;5034166;28;20081;-43
2022/07/17 09:59:10;;;;;;;3.75;2.45;;;;;;;34.84;28.08;101096.03;5042716;28;20053;-41
2022/07/17 10:01:39;;;;;;;3.35;2.70;;;;;;;34.67;28.43;101096.69;5040731;28;20053;-41
2022/07/17 10:04:08;;;;;;;4.15;2.33;;;;;;;34.66;28.85;101095.00;5043940;28;20132;-42
2022/07/17 10:06:35;;;;;;;3.03;2.20;;;;;;;34.64;27.75;101094.31;5034613;28;20111;-43
2022/07/17 10:09:03;;;;;;;2.38;2.17;;;;;;;34.57;28.09;101089.44;5042078;28;20045;-42
2022/07/17 10:11:31;;;;;;;;;;;;;;;34.43;29.07;101092.47;5046668;28;20050;-43
2022/07/17 10:14:10;;;;;;;2.45;2.25;;;;;;;34.56;28.07;101092.25;5041909;28;19967;-41
2022/07/17 10:16:38;;;;;;;2.35;2.13;;;;;;;34.54;28.06;101089.69;5039443;28;20132;-42
2022/07/17 10:19:23;;;;;;;3.28;2.50;;;;;;;34.45;28.28;101085.16;5044474;28;20048;-44
2022/07/17 10:21:56;;;;;;;2.65;2.03;;;;;;;34.53;27.91;101079.06;5042260;28;20049;-43
2022/07/17 10:24:23;;;;;;;2.83;2.60;;;;;;;34.70;28.88;101069.53;5038440;28;20535;-47
2022/07/17 10:26:51;;;;;;;2.88;2.30;;;;;;;34.91;28.66;101074.78;5046114;28;20102;-44
2022/07/17 10:32:08;;;;;;;5.53;1.13;;;;;;;34.38;26.36;101075.91;5052670;28;20397;-44
2022/07/17 10:35:03;;;;;;;1.90;1.52;;;;;;;34.12;27.09;101076.38;4978195;28;20058;-43
2022/07/17 10:40:22;;;;;;;2.95;1.23;;;;;;;34.28;27.56;101068.69;5056079;27;20403;-46
2022/07/17 10:48:11;;;;;;;2.90;1.10;;;;;;;34.32;26.80;101048.59;5031045;27;20406;-44
2022/07/17 10:50:41;;;;;;;2.15;1.10;;;;;;;34.12;26.29;101050.34;5009562;28;20050;-43
2022/07/17 10:55:57;;;;;;;2.80;0.95;;;;;;;34.00;26.69;101048.72;5124450;27;20404;-48
2022/07/17 10:58:32;;;;;;;1.50;1.00;;;;;;;34.15;26.58;101046.53;5050083;27;20061;-44
2022/07/17 11:03:49;;;;;;;3.08;1.40;;;;;;;34.24;27.08;101034.97;5011883;28;20406;-46
2022/07/17 11:06:19;;;;;;;3.33;1.10;;;;;;;34.16;26.28;101034.78;4991886;28;20043;-44
2022/07/17 11:11:39;;;;;;;3.35;1.60;;;;;;;33.94;26.37;101028.63;5051111;27;20398;-47
2022/07/17 11:14:24;;;;;;;2.50;1.50;;;;;;;33.93;26.45;101029.56;5023639;28;20049;-48
2022/07/17 11:19:38;;;;;;;4.60;2.33;;;;;;;34.38;26.33;101033.75;5055610;27;20906;-43
2022/07/17 11:22:09;;;;;;;3.88;3.08;;;;;;;34.57;26.24;101035.63;5003654;28;20195;-49
2022/07/17 11:30:00;;;;;;;3.05;1.73;;;;;;;34.61;24.83;101022.75;5039333;28;21129;-43
2022/07/17 11:32:37;;;;;;;2.60;1.67;;;;;;;34.54;25.14;101022.47;5009830;28;20053;-45
2022/07/17 11:35:21;;;;;;;2.67;1.65;;;;;;;34.30;25.34;101023.69;5006686;28;20042;-45
2022/07/17 11:38:07;;;;;;;4.72;1.30;;;;;;;34.13;26.03;101032.41;4999078;28;20212;-43
2022/07/17 11:40:34;;;;;;;3.75;3.13;;;;;;;34.00;25.81;101028.06;5004308;28;20656;-43
2022/07/17 11:43:04;;;;;;;3.67;2.17;;;;;;;33.98;26.38;101027.34;5013212;28;20045;-44
2022/07/17 11:45:31;;;;;;;3.75;1.85;;;;;;;34.01;25.79;101029.78;5008261;28;20045;-43
2022/07/17 11:48:01;;;;;;;5.30;1.83;;;;;;;34.07;25.74;101034.59;5009193;28;20100;-42
2022/07/17 11:50:28;;;;;;;3.97;2.00;;;;;;;34.05;26.13;101030.34;5010046;28;20084;-44
2022/07/17 11:53:00;;;;;;;4.57;1.73;;;;;;;34.13;26.37;101032.41;5007536;28;20061;-41
2022/07/17 11:55:37;;;;;;;2.60;1.50;;;;;;;34.21;26.57;101030.72;5002706;28;20050;-42
2022/07/17 11:58:04;;;;;;;3.13;1.75;;;;;;;34.39;26.75;101021.16;5001169;28;20042;-42
2022/07/17 12:00:31;;;;;;;2.88;1.88;;;;;;;34.54;26.70;101027.84;5002602;28;20472;-44
2022/07/17 12:03:00;;;;;;;4.88;1.95;;;;;;;34.70;26.82;101029.16;5006831;28;20046;-45
2022/07/17 12:05:28;;;;;;;;;;;;;;;34.71;26.60;101025.50;5003678;28;20112;-45
2022/07/17 12:07:55;;;;;;;3.10;1.70;;;;;;;34.94;27.17;101025.22;5005631;28;19928;-41
2022/07/17 12:10:24;;;;;;;2.55;1.67;;;;;;;35.09;26.13;101029.19;4996976;28;20094;-45
2022/07/17 12:15:49;;;;;;;4.15;1.60;;;;;;;35.24;26.57;101021.56;5031987;28;20781;-43